createdAt,value
2022-12-01T00:01:13.227Z,70.17
2022-12-01T00:03:40.160Z,70.39
2022-12-01T00:06:10.720Z,70.09
2022-12-01T00:08:37.680Z,70.83
2022-12-01T00:11:10.567Z,70.82
2022-12-01T00:13:37.735Z,70.78
2022-12-01T00:16:15.582Z,70.47
2022-12-01T00:18:42.775Z,70.14
2022-12-01T00:21:17.571Z,69.92
2022-12-01T00:23:48.918Z,69.47
2022-12-01T00:26:16.895Z,69.65
2022-12-01T00:28:43.730Z,69.36
2022-12-01T00:31:12.169Z,69.41
2022-12-01T00:33:39.612Z,69.35
2022-12-01T00:36:07.521Z,69.27
2022-12-01T00:38:34.891Z,69.66
2022-12-01T00:41:03.672Z,69.53
2022-12-01T00:43:30.320Z,69.39
2022-12-01T00:45:57.956Z,69.43
2022-12-01T00:48:24.918Z,69.13
2022-12-01T00:50:53.431Z,69.08
2022-12-01T00:53:20.259Z,69.12
2022-12-01T00:55:46.971Z,69.26
2022-12-01T00:58:13.735Z,69.52
2022-12-01T01:00:40.541Z,69.62
2022-12-01T01:03:07.591Z,69.80
2022-12-01T01:05:39.167Z,70.21
2022-12-01T01:08:10.143Z,70.88
2022-12-01T01:10:47.531Z,70.60
2022-12-01T01:13:15.284Z,70.67
2022-12-01T01:15:42.039Z,69.97
2022-12-01T01:18:10.743Z,70.24
2022-12-01T01:20:37.466Z,70.97
2022-12-01T01:23:04.106Z,71.10
2022-12-01T01:25:32.384Z,70.64
2022-12-01T01:27:59.075Z,70.85
2022-12-01T01:30:25.780Z,70.70
2022-12-01T01:32:52.466Z,71.08
2022-12-01T01:35:19.071Z,71.12
2022-12-01T01:37:45.761Z,71.00
2022-12-01T01:40:12.560Z,71.09
2022-12-01T01:42:39.238Z,70.94
2022-12-01T01:45:21.478Z,70.62
2022-12-01T01:47:49.472Z,70.45
2022-12-01T01:50:19.123Z,70.41
2022-12-01T01:52:51.639Z,70.52
2022-12-01T01:55:19.433Z,70.51
2022-12-01T01:57:46.626Z,71.00
2022-12-01T02:00:17.139Z,70.63
2022-12-01T02:02:45.939Z,70.61
2022-12-01T02:05:29.430Z,70.31
2022-12-01T02:07:57.846Z,70.47
2022-12-01T02:10:56.051Z,70.30
2022-12-01T02:14:02.747Z,70.11
2022-12-01T02:16:36.279Z,70.07
2022-12-01T02:19:33.506Z,70.71
2022-12-01T02:22:37.599Z,70.79
2022-12-01T02:25:38.448Z,70.42
2022-12-01T02:28:26.860Z,70.58
2022-12-01T02:30:59.310Z,70.67
2022-12-01T02:33:35.667Z,71.59
2022-12-01T02:36:18.352Z,71.55
2022-12-01T02:39:12.170Z,70.89
2022-12-01T02:41:45.335Z,71.28
2022-12-01T02:44:18.104Z,71.27
2022-12-01T02:46:50.891Z,71.23
2022-12-01T02:49:23.948Z,71.59
2022-12-01T02:51:52.535Z,71.66
2022-12-01T02:54:20.411Z,71.27
2022-12-01T02:56:47.019Z,71.11
2022-12-01T02:59:15.151Z,70.79
2022-12-01T03:02:18.250Z,70.67
2022-12-01T03:05:01.451Z,70.22
2022-12-01T03:07:40.566Z,70.27
2022-12-01T03:10:35.005Z,70.54
2022-12-01T03:13:07.507Z,70.62
2022-12-01T03:16:06.909Z,70.85
2022-12-01T03:18:45.946Z,70.81
2022-12-01T03:21:21.301Z,71.21
2022-12-01T03:23:52.123Z,71.30
2022-12-01T03:26:22.527Z,71.43
2022-12-01T03:28:54.631Z,71.34
2022-12-01T03:31:25.793Z,70.99
2022-12-01T03:33:58.332Z,71.21
2022-12-01T03:36:30.981Z,71.19
2022-12-01T03:39:04.664Z,70.76
2022-12-01T03:41:56.392Z,71.12
2022-12-01T03:44:34.169Z,71.09
2022-12-01T03:47:08.647Z,71.31
2022-12-01T03:49:36.338Z,71.11
2022-12-01T03:52:21.407Z,71.24
2022-12-01T03:55:12.503Z,71.00
2022-12-01T03:58:05.294Z,70.74
2022-12-01T04:00:32.641Z,70.42
2022-12-01T04:03:03.867Z,70.23
2022-12-01T04:05:35.200Z,70.27
2022-12-01T04:08:02.147Z,70.62
2022-12-01T04:10:28.884Z,70.69
2022-12-01T04:12:59.404Z,70.79
2022-12-01T04:15:27.228Z,70.67
2022-12-01T04:17:54.298Z,70.54
2022-12-01T04:20:21.675Z,70.49
2022-12-01T04:22:49.289Z,70.38
2022-12-01T04:25:15.941Z,70.54
2022-12-01T04:27:42.557Z,70.82
2022-12-01T04:30:09.708Z,70.38
2022-12-01T04:32:43.535Z,70.47
2022-12-01T04:35:12.266Z,69.96
2022-12-01T04:37:39.936Z,70.26
2022-12-01T04:40:07.289Z,70.55
2022-12-01T04:42:34.204Z,70.33
2022-12-01T04:45:00.847Z,70.34
2022-12-01T04:47:27.761Z,69.88
2022-12-01T04:49:54.602Z,69.90
2022-12-01T04:52:21.250Z,69.83
2022-12-01T04:54:47.927Z,69.44
2022-12-01T04:57:14.596Z,68.93
2022-12-01T04:59:41.491Z,69.14
2022-12-01T05:02:08.245Z,69.33
2022-12-01T05:04:38.535Z,69.24
2022-12-01T05:07:05.483Z,69.13
2022-12-01T05:09:32.135Z,69.35
2022-12-01T05:11:58.803Z,69.49
2022-12-01T05:14:25.384Z,69.62
2022-12-01T05:16:52.042Z,69.51
2022-12-01T05:19:37.409Z,69.28
2022-12-01T05:22:04.087Z,69.18
2022-12-01T05:24:30.679Z,69.04
2022-12-01T05:26:57.302Z,68.90
2022-12-01T05:29:24.027Z,68.77
2022-12-01T05:31:50.690Z,68.97
2022-12-01T05:34:17.411Z,68.65
2022-12-01T05:36:44.050Z,68.35
2022-12-01T05:39:10.701Z,68.52
2022-12-01T05:41:37.361Z,68.36
2022-12-01T05:44:04.030Z,68.26
2022-12-01T05:46:30.732Z,68.14
2022-12-01T05:48:57.294Z,68.05
2022-12-01T05:51:24.066Z,68.18
2022-12-01T05:53:50.736Z,67.99
2022-12-01T05:56:17.375Z,68.46
2022-12-01T05:58:44.068Z,68.41
2022-12-01T06:01:10.848Z,68.43
2022-12-01T06:03:37.491Z,68.37
2022-12-01T06:06:04.210Z,68.33
2022-12-01T06:08:30.899Z,68.32
2022-12-01T06:10:57.579Z,68.72
2022-12-01T06:13:24.327Z,68.56
2022-12-01T06:16:02.599Z,68.43
2022-12-01T06:18:37.853Z,68.68
2022-12-01T06:21:06.223Z,68.42
2022-12-01T06:23:32.955Z,68.43
2022-12-01T06:25:59.580Z,68.88
2022-12-01T06:28:26.204Z,68.61
2022-12-01T06:30:56.565Z,68.69
2022-12-01T06:33:26.427Z,69.40
2022-12-01T06:36:00.770Z,69.95
2022-12-01T06:38:30.976Z,69.76
2022-12-01T06:40:57.675Z,69.57
2022-12-01T06:43:24.279Z,69.22
2022-12-01T06:45:52.445Z,69.45
2022-12-01T06:48:21.872Z,69.30
2022-12-01T06:50:48.526Z,69.38
2022-12-01T06:53:15.191Z,69.11
2022-12-01T06:55:41.780Z,69.07
2022-12-01T06:58:08.460Z,69.50
2022-12-01T07:00:35.514Z,69.72
2022-12-01T07:03:02.110Z,69.70
2022-12-01T07:05:28.672Z,69.72
2022-12-01T07:07:59.542Z,69.15
2022-12-01T07:10:27.779Z,69.19
2022-12-01T07:12:57.203Z,69.50
2022-12-01T07:15:24.476Z,69.90
2022-12-01T07:17:51.147Z,69.60
2022-12-01T07:20:18.046Z,69.34
2022-12-01T07:22:44.640Z,69.20
2022-12-01T07:25:11.331Z,69.27
2022-12-01T07:27:37.921Z,69.04
2022-12-01T07:30:05.216Z,69.04
2022-12-01T07:32:31.882Z,68.76
2022-12-01T07:34:58.561Z,68.93
2022-12-01T07:37:25.172Z,68.64
2022-12-01T07:39:51.952Z,69.09
2022-12-01T07:42:18.623Z,69.40
2022-12-01T07:44:45.378Z,68.65
2022-12-01T07:47:12.031Z,68.70
2022-12-01T07:49:38.659Z,67.95
2022-12-01T07:52:05.254Z,67.29
2022-12-01T07:54:31.917Z,67.56
2022-12-01T07:56:58.530Z,66.74
2022-12-01T07:59:25.239Z,66.55
2022-12-01T08:01:52.703Z,66.43
2022-12-01T08:04:19.334Z,66.06
2022-12-01T08:06:45.969Z,65.84
2022-12-01T08:09:12.646Z,65.59
2022-12-01T08:11:39.274Z,65.85
2022-12-01T08:14:05.994Z,65.08
2022-12-01T08:16:32.750Z,65.34
2022-12-01T08:18:59.744Z,65.28
2022-12-01T08:21:26.363Z,65.26
2022-12-01T08:23:57.588Z,65.89
2022-12-01T08:26:25.482Z,64.86
2022-12-01T08:28:52.235Z,64.97
2022-12-01T08:31:25.902Z,65.02
2022-12-01T08:33:52.967Z,65.01
2022-12-01T08:36:20.875Z,65.02
2022-12-01T08:38:49.849Z,64.50
2022-12-01T08:41:16.823Z,63.85
2022-12-01T08:44:01.093Z,63.52
2022-12-01T08:46:31.307Z,63.88
2022-12-01T08:48:58.376Z,63.92
2022-12-01T08:51:26.250Z,63.97
2022-12-01T08:53:54.386Z,64.30
2022-12-01T08:56:30.296Z,64.12
2022-12-01T08:58:58.041Z,64.25
2022-12-01T09:01:25.905Z,64.80
2022-12-01T09:04:11.199Z,64.64
2022-12-01T09:06:40.751Z,64.35
2022-12-01T09:09:09.450Z,64.40
2022-12-01T09:11:36.319Z,64.15
2022-12-01T09:14:02.964Z,63.79
2022-12-01T09:16:29.734Z,63.54
2022-12-01T09:18:56.627Z,63.26
2022-12-01T09:21:26.566Z,62.99
2022-12-01T09:23:54.175Z,62.62
2022-12-01T09:26:21.230Z,62.34
2022-12-01T09:28:56.249Z,62.54
2022-12-01T09:31:23.696Z,61.77
2022-12-01T09:33:58.324Z,61.20
2022-12-01T09:36:25.880Z,61.04
2022-12-01T09:38:52.670Z,60.73
2022-12-01T09:41:24.335Z,60.71
2022-12-01T09:44:14.413Z,61.10
2022-12-01T09:46:54.000Z,61.08
2022-12-01T09:49:28.577Z,61.36
2022-12-01T09:51:55.852Z,61.28
2022-12-01T09:54:22.537Z,60.85
2022-12-01T09:56:55.455Z,60.84
2022-12-01T09:59:30.884Z,60.70
2022-12-01T10:02:02.763Z,60.73
2022-12-01T10:04:44.518Z,60.23
2022-12-01T10:07:43.268Z,59.98
2022-12-01T10:10:47.039Z,59.93
2022-12-01T10:13:25.500Z,60.21
2022-12-01T10:16:03.813Z,59.37
2022-12-01T10:18:33.365Z,59.36
2022-12-01T10:21:02.668Z,59.56
2022-12-01T10:23:49.872Z,59.33
2022-12-01T10:26:29.862Z,59.13
2022-12-01T10:29:25.338Z,58.46
2022-12-01T10:31:58.320Z,57.95
2022-12-01T10:34:29.574Z,57.14
2022-12-01T10:36:57.941Z,57.46
2022-12-01T10:39:43.971Z,56.95
2022-12-01T10:42:35.528Z,56.89
2022-12-01T10:45:10.136Z,56.74
2022-12-01T10:47:36.779Z,56.49
2022-12-01T10:50:04.190Z,56.12
2022-12-01T10:52:33.201Z,56.19
2022-12-01T10:55:00.951Z,55.52
2022-12-01T10:57:30.585Z,55.05
2022-12-01T11:00:01.467Z,54.94
2022-12-01T11:02:31.037Z,55.00
2022-12-01T11:05:01.569Z,55.07
2022-12-01T11:07:47.242Z,54.43
2022-12-01T11:10:27.809Z,53.84
2022-12-01T11:13:13.277Z,52.80
2022-12-01T11:15:49.587Z,51.80
2022-12-01T11:18:33.146Z,50.88
2022-12-01T11:21:16.768Z,50.50
2022-12-01T11:23:51.098Z,50.39
2022-12-01T11:26:26.492Z,49.66
2022-12-01T11:28:56.853Z,49.84
2022-12-01T11:31:45.075Z,50.03
2022-12-01T11:34:34.566Z,49.98
2022-12-01T11:37:04.792Z,49.63
2022-12-01T11:39:40.445Z,48.65
2022-12-01T11:42:21.426Z,47.81
2022-12-01T11:44:54.480Z,47.94
2022-12-01T11:47:24.791Z,47.54
2022-12-01T11:49:56.702Z,47.62
2022-12-01T11:52:27.288Z,47.68
2022-12-01T11:57:53.053Z,46.98
2022-12-01T12:00:23.144Z,47.03
2022-12-01T12:03:11.544Z,46.91
2022-12-01T12:05:47.057Z,47.09
2022-12-01T12:08:22.728Z,46.53
2022-12-01T12:11:04.377Z,45.86
2022-12-01T12:13:33.721Z,45.73
2022-12-01T12:16:40.308Z,45.91
2022-12-01T12:19:16.010Z,45.43
2022-12-01T12:21:57.351Z,45.21
2022-12-01T12:24:56.449Z,45.26
2022-12-01T12:28:02.385Z,45.43
2022-12-01T12:30:31.513Z,45.10
2022-12-01T12:33:42.955Z,44.95
2022-12-01T12:36:29.144Z,45.15
2022-12-01T12:39:10.908Z,44.90
2022-12-01T12:41:54.364Z,45.13
2022-12-01T12:44:36.838Z,45.03
2022-12-01T12:47:31.610Z,44.78
2022-12-01T12:50:42.534Z,44.37
2022-12-01T12:53:18.668Z,44.45
2022-12-01T12:55:59.842Z,44.59
2022-12-01T12:58:34.571Z,44.97
2022-12-01T13:01:07.822Z,45.56
2022-12-01T13:03:42.404Z,45.75
2022-12-01T13:06:20.401Z,45.91
2022-12-01T13:09:03.930Z,46.36
2022-12-01T13:11:42.006Z,46.21
2022-12-01T13:14:34.751Z,46.23
2022-12-01T13:17:23.726Z,46.13
2022-12-01T13:19:50.610Z,46.79
2022-12-01T13:22:21.721Z,47.10
2022-12-01T13:24:48.395Z,47.38
2022-12-01T13:27:20.986Z,47.23
2022-12-01T13:29:51.135Z,47.54
2022-12-01T13:32:47.172Z,47.72
2022-12-01T13:35:29.130Z,48.09
2022-12-01T13:38:14.312Z,48.32
2022-12-01T13:40:41.126Z,48.18
2022-12-01T13:43:25.506Z,48.31
2022-12-01T13:45:52.219Z,48.11
2022-12-01T13:48:50.120Z,48.31
2022-12-01T13:51:16.843Z,48.54
2022-12-01T13:54:01.421Z,48.36
2022-12-01T13:56:39.287Z,48.39
2022-12-01T13:59:40.247Z,48.61
2022-12-01T14:02:17.189Z,48.06
2022-12-01T14:04:44.137Z,47.79
2022-12-01T14:07:36.400Z,47.50
2022-12-01T14:10:08.351Z,47.49
2022-12-01T14:12:37.845Z,47.78
2022-12-01T14:15:52.477Z,47.62
2022-12-01T14:18:24.877Z,48.02
2022-12-01T14:20:51.822Z,48.11
2022-12-01T14:23:33.210Z,47.93
2022-12-01T14:26:21.062Z,47.91
2022-12-01T14:28:59.783Z,47.60
2022-12-01T14:31:32.458Z,47.41
2022-12-01T14:34:03.175Z,47.30
2022-12-01T14:36:35.910Z,47.57
2022-12-01T14:39:12.272Z,47.79
2022-12-01T14:41:51.118Z,47.68
2022-12-01T14:44:17.776Z,47.82
2022-12-01T14:46:59.631Z,47.69
2022-12-01T14:49:39.537Z,47.96
2022-12-01T14:52:15.344Z,47.68
2022-12-01T14:54:47.748Z,47.44
2022-12-01T14:57:18.596Z,47.57
2022-12-01T14:59:45.300Z,47.48
2022-12-01T15:02:12.609Z,47.77
2022-12-01T15:05:09.764Z,48.16
2022-12-01T15:07:42.438Z,47.85
2022-12-01T15:10:20.030Z,47.41
2022-12-01T15:12:48.080Z,47.14
2022-12-01T15:15:26.845Z,47.65
2022-12-01T15:17:55.732Z,47.58
2022-12-01T15:20:28.405Z,47.42
2022-12-01T15:22:55.586Z,47.08
2022-12-01T15:25:23.423Z,46.90
2022-12-01T15:28:03.711Z,46.94
2022-12-01T15:30:31.435Z,47.74
2022-12-01T15:32:59.073Z,47.58
2022-12-01T15:35:26.235Z,47.85
2022-12-01T15:37:53.694Z,47.83
2022-12-01T15:43:27.080Z,47.05
2022-12-01T15:45:59.228Z,46.97
2022-12-01T15:48:34.910Z,47.27
2022-12-01T15:51:10.630Z,47.47
2022-12-01T15:53:42.748Z,47.46
2022-12-01T15:56:11.603Z,46.89
2022-12-01T15:58:47.712Z,47.03
2022-12-01T16:01:20.202Z,46.51
2022-12-01T16:03:46.787Z,46.67
2022-12-01T16:06:13.747Z,46.88
2022-12-01T16:08:40.890Z,46.60
2022-12-01T16:11:19.155Z,46.89
2022-12-01T16:13:55.531Z,46.87
2022-12-01T16:16:30.420Z,46.83
2022-12-01T16:19:09.911Z,46.69
2022-12-01T16:22:04.696Z,46.09
2022-12-01T16:24:42.531Z,46.21
2022-12-01T16:27:24.151Z,46.37
2022-12-01T16:29:50.750Z,46.05
2022-12-01T16:32:31.289Z,45.93
2022-12-01T16:34:58.391Z,45.76
2022-12-01T16:37:26.842Z,45.94
2022-12-01T16:39:53.729Z,45.97
2022-12-01T16:42:21.823Z,46.00
2022-12-01T16:44:50.266Z,45.63
2022-12-01T16:47:25.274Z,45.81
2022-12-01T16:49:53.078Z,45.72
2022-12-01T16:52:43.782Z,45.85
2022-12-01T16:55:42.463Z,46.08
2022-12-01T16:58:09.475Z,45.92
2022-12-01T17:00:36.131Z,45.82
2022-12-01T17:03:04.360Z,45.82
2022-12-01T17:05:31.363Z,45.70
2022-12-01T17:07:58.091Z,45.88
2022-12-01T17:10:25.716Z,45.64
2022-12-01T17:12:52.429Z,45.94
2022-12-01T17:15:19.139Z,45.62
2022-12-01T17:17:45.874Z,45.66
2022-12-01T17:20:13.327Z,45.92
2022-12-01T17:22:40.102Z,45.84
2022-12-01T17:25:09.562Z,45.78
2022-12-01T17:27:37.580Z,45.69
2022-12-01T17:30:05.727Z,45.85
2022-12-01T17:32:32.687Z,45.67
2022-12-01T17:34:59.368Z,45.90
2022-12-01T17:37:27.969Z,45.70
2022-12-01T17:39:54.759Z,45.73
2022-12-01T17:42:21.946Z,46.00
2022-12-01T17:44:48.849Z,46.14
2022-12-01T17:47:15.821Z,46.14
2022-12-01T17:49:42.478Z,46.13
2022-12-01T17:52:09.271Z,46.39
2022-12-01T17:54:35.911Z,46.63
2022-12-01T17:57:02.782Z,46.63
2022-12-01T17:59:29.378Z,47.09
2022-12-01T18:01:56.162Z,47.27
2022-12-01T18:04:22.836Z,47.42
2022-12-01T18:06:54.070Z,47.35
2022-12-01T18:09:21.759Z,47.53
2022-12-01T18:11:48.966Z,47.38
2022-12-01T18:14:17.855Z,47.29
2022-12-01T18:16:45.143Z,47.43
2022-12-01T18:19:12.336Z,47.46
2022-12-01T18:21:39.440Z,47.47
2022-12-01T18:24:08.898Z,47.27
2022-12-01T18:26:37.691Z,47.35
2022-12-01T18:29:07.286Z,47.02
2022-12-01T18:31:35.096Z,47.11
2022-12-01T18:34:03.402Z,47.14
2022-12-01T18:36:32.046Z,47.25
2022-12-01T18:39:00.363Z,47.01
2022-12-01T18:41:27.867Z,46.69
2022-12-01T18:43:54.547Z,46.93
2022-12-01T18:46:22.208Z,47.11
2022-12-01T18:48:51.107Z,47.08
2022-12-01T18:51:18.552Z,47.81
2022-12-01T18:53:45.512Z,48.84
2022-12-01T18:56:15.043Z,49.21
2022-12-01T18:58:42.181Z,49.28
2022-12-01T19:01:27.294Z,49.38
2022-12-01T19:03:55.979Z,49.57
2022-12-01T19:06:23.760Z,49.42
2022-12-01T19:08:51.317Z,49.17
2022-12-01T19:11:18.505Z,49.58
2022-12-01T19:13:45.354Z,49.53
2022-12-01T19:16:14.751Z,49.59
2022-12-01T19:18:42.438Z,49.38
2022-12-01T19:21:11.734Z,49.32
2022-12-01T19:23:38.461Z,49.24
2022-12-01T19:26:06.526Z,49.31
2022-12-01T19:28:34.322Z,49.23
2022-12-01T19:31:08.984Z,49.20
2022-12-01T19:33:35.815Z,49.30
2022-12-01T19:36:12.301Z,49.30
2022-12-01T19:38:40.115Z,49.23
2022-12-01T19:41:08.382Z,49.50
2022-12-01T19:43:36.146Z,49.00
2022-12-01T19:46:14.049Z,49.21
2022-12-01T19:48:40.916Z,49.22
2022-12-01T19:51:15.149Z,49.44
2022-12-01T19:53:41.794Z,49.48
2022-12-01T19:56:09.301Z,49.47
2022-12-01T19:58:35.984Z,49.49
2022-12-01T20:01:08.953Z,49.62
2022-12-01T20:03:36.170Z,49.24
2022-12-01T20:06:06.645Z,48.82
2022-12-01T20:08:35.958Z,48.96
2022-12-01T20:11:04.524Z,48.84
2022-12-01T20:13:35.627Z,49.06
2022-12-01T20:16:07.227Z,49.01
2022-12-01T20:18:34.062Z,49.13
2022-12-01T20:21:17.614Z,49.57
2022-12-01T20:23:50.192Z,49.62
2022-12-01T20:26:19.270Z,49.75
2022-12-01T20:28:50.512Z,50.24
2022-12-01T20:31:24.076Z,51.03
2022-12-01T20:33:52.388Z,50.71
2022-12-01T20:36:20.050Z,50.81
2022-12-01T20:38:47.021Z,50.95
2022-12-01T20:41:14.133Z,50.93
2022-12-01T20:43:40.854Z,50.58
2022-12-01T20:46:07.796Z,50.77
2022-12-01T20:48:35.070Z,50.38
2022-12-01T20:51:03.380Z,50.89
2022-12-01T20:53:30.355Z,50.94
2022-12-01T20:55:57.166Z,51.06
2022-12-01T20:58:23.893Z,51.11
2022-12-01T21:00:52.299Z,51.44
2022-12-01T21:03:19.051Z,51.85
2022-12-01T21:05:45.788Z,52.19
2022-12-01T21:08:13.452Z,52.11
2022-12-01T21:10:44.770Z,51.92
2022-12-01T21:13:37.718Z,51.75
2022-12-01T21:16:13.677Z,52.10
2022-12-01T21:19:00.394Z,51.94
2022-12-01T21:21:29.131Z,52.17
2022-12-01T21:24:07.689Z,52.29
2022-12-01T21:26:38.869Z,52.44
2022-12-01T21:29:24.761Z,52.48
2022-12-01T21:31:54.202Z,52.35
2022-12-01T21:34:25.751Z,52.72
2022-12-01T21:36:56.825Z,52.54
2022-12-01T21:39:24.654Z,53.17
2022-12-01T21:41:56.925Z,53.00
2022-12-01T21:44:36.198Z,52.73
2022-12-01T21:47:17.351Z,53.11
2022-12-01T21:49:47.061Z,53.34
2022-12-01T21:52:22.692Z,53.10
2022-12-01T21:54:49.887Z,53.64
2022-12-01T21:57:42.757Z,53.17
2022-12-01T22:00:28.235Z,53.69
2022-12-01T22:03:19.825Z,53.58
2022-12-01T22:06:13.480Z,53.96
2022-12-01T22:08:40.031Z,54.24
2022-12-01T22:11:25.492Z,54.28
2022-12-01T22:14:01.006Z,54.44
2022-12-01T22:16:36.243Z,54.36
2022-12-01T22:19:23.025Z,54.46
2022-12-01T22:21:54.713Z,54.29
2022-12-01T22:24:27.399Z,54.38
2022-12-01T22:27:04.099Z,53.80
2022-12-01T22:29:40.613Z,54.38
2022-12-01T22:32:13.392Z,54.12
2022-12-01T22:34:53.281Z,53.77
2022-12-01T22:37:23.012Z,54.42
2022-12-01T22:39:53.944Z,54.22
2022-12-01T22:42:34.885Z,54.86
2022-12-01T22:45:29.453Z,54.79
2022-12-01T22:48:01.841Z,54.79
2022-12-01T22:50:31.934Z,54.81
2022-12-01T22:53:14.969Z,55.18
2022-12-01T22:55:41.927Z,55.18
2022-12-01T22:58:25.157Z,55.75
2022-12-01T23:00:53.951Z,55.60
2022-12-01T23:03:20.692Z,55.88
2022-12-01T23:05:55.412Z,56.22
2022-12-01T23:08:23.644Z,56.39
2022-12-01T23:10:51.102Z,55.93
2022-12-01T23:13:23.793Z,55.86
2022-12-01T23:15:53.693Z,55.32
2022-12-01T23:18:27.045Z,55.44
2022-12-01T23:20:56.058Z,55.27
2022-12-01T23:23:34.515Z,55.25
2022-12-01T23:26:07.831Z,55.49
2022-12-01T23:28:37.030Z,55.51
2022-12-01T23:31:03.737Z,55.40
2022-12-01T23:33:32.661Z,55.41
2022-12-01T23:36:28.445Z,55.60
2022-12-01T23:39:02.462Z,55.59
2022-12-01T23:41:36.915Z,55.81
2022-12-01T23:44:09.398Z,55.82
2022-12-01T23:46:36.819Z,56.19
2022-12-01T23:49:07.269Z,56.18
2022-12-01T23:51:45.497Z,56.40
2022-12-01T23:54:33.693Z,56.41
2022-12-01T23:57:24.033Z,55.84
2022-12-01T23:59:54.846Z,55.93
